Time;durP1;ratioP1;P1;durP2;ratioP2;P2;SDS_P1;SDS_P2;PMS_P1;PMS_P2;Temp;Humidity;BMP_temperature;BMP_pressure;BME280_temperature;BME280_humidity;BME280_pressure;Samples;Min_cycle;Max_cycle;Signal;HPM_P1;HPM_P2
2022/05/09 00:00:19;;;;;;;24.08;12.32;;;10.70;99.90;;;;;;5069491;28;20076;-65
2022/05/09 00:02:45;;;;;;;22.27;12.70;;;10.70;99.90;;;;;;5067432;28;20024;-65
2022/05/09 00:05:15;;;;;;;22.35;12.70;;;10.60;99.90;;;;;;5067672;28;20063;-65
2022/05/09 00:07:41;;;;;;;19.52;12.20;;;10.60;99.90;;;;;;5063952;28;20039;-67
2022/05/09 00:10:08;;;;;;;21.38;11.82;;;10.60;99.90;;;;;;5066857;28;20122;-65
2022/05/09 00:12:34;;;;;;;21.30;11.93;;;10.50;99.90;;;;;;5066969;28;20539;-66
2022/05/09 00:15:00;;;;;;;21.65;12.55;;;10.50;99.90;;;;;;5068210;28;20032;-66
2022/05/09 00:17:26;;;;;;;21.10;11.85;;;10.50;99.90;;;;;;5061660;28;20729;-66
2022/05/09 00:19:51;;;;;;;20.95;11.95;;;10.50;99.90;;;;;;5065492;28;20052;-65
2022/05/09 00:22:17;;;;;;;22.83;12.80;;;10.50;99.90;;;;;;5068440;28;20032;-64
2022/05/09 00:24:42;;;;;;;21.65;12.85;;;10.50;99.90;;;;;;5068193;28;20029;-66
2022/05/09 00:27:08;;;;;;;22.40;12.25;;;10.50;99.90;;;;;;5065795;28;20039;-67
2022/05/09 00:29:34;;;;;;;23.23;12.57;;;10.40;99.90;;;;;;5067491;28;20037;-66
2022/05/09 00:32:00;;;;;;;23.50;12.70;;;10.40;99.90;;;;;;5061799;28;20060;-67
2022/05/09 00:34:26;;;;;;;21.70;12.65;;;10.30;99.90;;;;;;5060090;28;20036;-66
2022/05/09 00:36:52;;;;;;;23.52;12.55;;;10.30;99.90;;;;;;5064515;28;20032;-65
2022/05/09 00:39:19;;;;;;;22.88;12.45;;;10.30;99.90;;;;;;5061303;28;20560;-65
2022/05/09 00:41:45;;;;;;;22.23;12.73;;;10.30;99.90;;;;;;5064954;28;20031;-67
2022/05/09 00:44:21;;;;;;;21.25;12.60;;;10.30;99.90;;;;;;5063884;28;20674;-66
2022/05/09 00:46:53;;;;;;;22.48;12.55;;;10.30;99.90;;;;;;5057560;28;20119;-65
2022/05/09 00:49:29;;;;;;;24.50;13.07;;;10.10;99.90;;;;;;5068314;28;20451;-66
2022/05/09 00:52:02;;;;;;;25.92;13.20;;;10.10;99.90;;;;;;5066195;28;20040;-66
2022/05/09 00:54:34;;;;;;;24.08;13.35;;;10.10;99.90;;;;;;5061665;28;20025;-67
2022/05/09 00:57:09;;;;;;;23.38;12.68;;;10.10;99.90;;;;;;5065998;28;20395;-66
2022/05/09 00:59:38;;;;;;;25.95;13.93;;;10.10;99.90;;;;;;5066872;28;20127;-66
2022/05/09 01:02:04;;;;;;;21.35;12.77;;;10.00;99.90;;;;;;5066596;28;20029;-65
2022/05/09 01:04:38;;;;;;;24.92;13.48;;;10.00;99.90;;;;;;5068119;28;20085;-65
2022/05/09 01:07:04;;;;;;;24.80;13.18;;;10.00;99.90;;;;;;5065498;28;20024;-67
2022/05/09 01:09:30;;;;;;;23.40;13.43;;;10.00;99.90;;;;;;5055674;28;20511;-66
2022/05/09 01:11:55;;;;;;;25.75;13.00;;;10.00;99.90;;;;;;5061106;28;20077;-65
2022/05/09 01:14:28;;;;;;;25.33;13.27;;;10.00;99.90;;;;;;5057976;28;20108;-66
2022/05/09 01:16:54;;;;;;;21.80;12.25;;;10.00;99.90;;;;;;5067049;28;20020;-64
2022/05/09 01:19:36;;;;;;;22.10;13.27;;;10.00;99.90;;;;;;5057729;28;20489;-66
2022/05/09 01:22:23;;;;;;;24.35;13.52;;;10.00;99.90;;;;;;5066602;28;20116;-66
2022/05/09 01:24:50;;;;;;;20.88;12.43;;;10.00;99.90;;;;;;5060048;28;20127;-66
2022/05/09 01:27:16;;;;;;;22.55;13.18;;;9.90;99.90;;;;;;5063555;28;20025;-65
2022/05/09 01:29:44;;;;;;;25.40;13.15;;;9.90;99.90;;;;;;5067325;28;20464;-65
2022/05/09 01:32:13;;;;;;;24.08;13.10;;;9.90;99.90;;;;;;5067369;28;20063;-65
2022/05/09 01:34:45;;;;;;;22.95;12.70;;;9.80;99.90;;;;;;5058357;28;20028;-65
2022/05/09 01:37:12;;;;;;;23.83;13.55;;;9.90;99.90;;;;;;5066822;28;20033;-66
2022/05/09 01:39:39;;;;;;;27.20;12.70;;;9.80;99.90;;;;;;5066462;28;20373;-66
2022/05/09 01:42:07;;;;;;;25.23;13.30;;;9.80;99.90;;;;;;5062592;28;20445;-66
2022/05/09 01:44:34;;;;;;;21.70;12.32;;;9.80;99.90;;;;;;5063408;28;20059;-66
2022/05/09 01:49:44;;;;;;;20.48;11.55;;;9.70;99.90;;;;;;5066501;28;20059;-65
2022/05/09 01:52:14;;;;;;;21.25;11.10;;;9.60;99.90;;;;;;5065602;28;20087;-65
2022/05/09 01:54:43;;;;;;;21.40;11.80;;;9.40;99.90;;;;;;5066960;28;20127;-65
2022/05/09 01:57:09;;;;;;;21.20;12.00;;;9.40;99.90;;;;;;5058146;28;20041;-65
2022/05/09 01:59:35;;;;;;;20.33;11.68;;;9.30;99.90;;;;;;5065961;28;20025;-66
2022/05/09 02:02:08;;;;;;;21.17;12.00;;;9.20;99.90;;;;;;5061814;28;20488;-65
2022/05/09 02:04:35;;;;;;;24.63;13.32;;;9.20;99.90;;;;;;5064631;28;20036;-65
2022/05/09 02:07:01;;;;;;;25.40;13.35;;;9.30;99.90;;;;;;5063362;28;20060;-65
2022/05/09 02:09:27;;;;;;;23.77;12.95;;;9.40;99.90;;;;;;5066301;28;20412;-66
2022/05/09 02:11:53;;;;;;;21.95;12.55;;;9.40;99.90;;;;;;5064152;28;20404;-66
2022/05/09 02:14:18;;;;;;;22.55;12.95;;;9.40;99.90;;;;;;5063552;28;20028;-65
2022/05/09 02:16:44;;;;;;;21.23;11.98;;;9.30;99.90;;;;;;5064601;28;20124;-66
2022/05/09 02:19:10;;;;;;;21.23;11.52;;;9.10;99.90;;;;;;5063805;28;20115;-66
2022/05/09 02:21:36;;;;;;;19.75;11.65;;;9.00;99.90;;;;;;5065250;28;20139;-67
2022/05/09 02:24:02;;;;;;;21.10;11.93;;;8.90;99.90;;;;;;5065501;28;20472;-67
2022/05/09 02:26:28;;;;;;;23.63;11.80;;;8.90;99.90;;;;;;5066892;28;20029;-67
2022/05/09 02:28:54;;;;;;;21.77;11.55;;;8.90;99.90;;;;;;5069129;28;20028;-66
2022/05/09 02:31:21;;;;;;;20.23;10.18;;;8.80;99.90;;;;;;5067099;28;20067;-66
2022/05/09 02:33:48;;;;;;;20.85;10.73;;;8.80;99.90;;;;;;5071441;28;20538;-67
2022/05/09 02:36:14;;;;;;;18.45;10.50;;;8.70;99.90;;;;;;5063597;28;20067;-66
2022/05/09 02:38:39;;;;;;;20.33;11.52;;;8.60;99.90;;;;;;5069458;28;20087;-66
2022/05/09 02:41:05;;;;;;;21.08;12.27;;;8.60;99.90;;;;;;5066905;28;20067;-65
2022/05/09 02:43:34;;;;;;;20.98;11.57;;;8.60;99.90;;;;;;5068757;28;20029;-66
2022/05/09 02:46:03;;;;;;;21.85;11.90;;;8.60;99.90;;;;;;5069185;28;20113;-65
2022/05/09 02:48:35;;;;;;;23.75;12.55;;;8.70;99.90;;;;;;5062559;28;20021;-66
2022/05/09 02:51:01;;;;;;;22.60;12.13;;;8.70;99.90;;;;;;5068950;28;20039;-64
2022/05/09 02:53:27;;;;;;;25.85;12.75;;;8.80;99.90;;;;;;5069301;28;20032;-67
2022/05/09 02:55:53;;;;;;;21.15;11.98;;;8.80;99.90;;;;;;5070295;28;20031;-66
2022/05/09 02:58:18;;;;;;;22.27;11.40;;;8.80;99.90;;;;;;5064814;28;20032;-67
2022/05/09 03:00:44;;;;;;;19.30;10.90;;;8.80;99.90;;;;;;5067913;28;20043;-67
2022/05/09 03:05:54;;;;;;;21.52;10.75;;;8.70;99.90;;;;;;5063380;28;20113;-66
2022/05/09 03:08:20;;;;;;;211.65;14.80;;;8.70;99.90;;;;;;5067793;28;20735;-65
2022/05/09 03:10:45;;;;;;;20.05;11.48;;;8.50;99.90;;;;;;5066889;28;20029;-65
2022/05/09 03:13:13;;;;;;;24.88;11.50;;;8.40;99.90;;;;;;5062562;28;20819;-66
2022/05/09 03:15:42;;;;;;;20.83;11.18;;;8.20;99.90;;;;;;5060074;28;20025;-66
2022/05/09 03:18:08;;;;;;;29.98;11.07;;;8.10;99.90;;;;;;5062549;28;20453;-65
2022/05/09 03:20:34;;;;;;;20.83;11.60;;;8.10;99.90;;;;;;5069485;28;20111;-67
2022/05/09 03:22:59;;;;;;;18.35;10.57;;;8.10;99.90;;;;;;5066679;28;20521;-66
2022/05/09 03:25:26;;;;;;;17.35;10.38;;;8.10;99.90;;;;;;5064838;28;20037;-66
2022/05/09 03:27:52;;;;;;;28.50;11.40;;;8.10;99.90;;;;;;5062395;28;20071;-66
2022/05/09 03:30:18;;;;;;;20.20;10.77;;;8.10;99.90;;;;;;5070314;28;20383;-66
2022/05/09 03:32:45;;;;;;;17.58;10.50;;;8.10;99.90;;;;;;5067999;28;20103;-66
2022/05/09 03:35:11;;;;;;;17.42;9.93;;;8.00;99.90;;;;;;5063109;28;20113;-66
2022/05/09 03:37:38;;;;;;;17.13;9.60;;;7.90;99.90;;;;;;5057257;28;20198;-66
2022/05/09 03:40:05;;;;;;;19.48;10.60;;;7.90;99.90;;;;;;5066019;28;21179;-66
2022/05/09 03:42:31;;;;;;;17.05;10.40;;;8.00;99.90;;;;;;5067733;28;20086;-66
2022/05/09 03:44:56;;;;;;;20.25;10.70;;;8.00;99.90;;;;;;5067345;28;20036;-67
2022/05/09 03:47:23;;;;;;;17.67;10.48;;;7.90;99.90;;;;;;5066656;28;20024;-66
2022/05/09 03:49:48;;;;;;;18.20;10.57;;;7.90;99.90;;;;;;5070967;28;20039;-66
2022/05/09 03:52:14;;;;;;;18.70;9.95;;;7.90;99.90;;;;;;5067644;28;20675;-66
2022/05/09 03:54:40;;;;;;;18.55;10.48;;;7.90;99.90;;;;;;5068770;28;20032;-66
2022/05/09 03:57:06;;;;;;;17.98;10.50;;;7.90;99.90;;;;;;5064292;28;20031;-66
2022/05/09 03:59:32;;;;;;;17.98;10.00;;;7.90;99.90;;;;;;5067192;28;20466;-66
2022/05/09 04:01:57;;;;;;;17.08;10.20;;;7.90;99.90;;;;;;5070372;28;20032;-67
2022/05/09 04:04:23;;;;;;;19.70;10.57;;;7.80;99.90;;;;;;5068071;28;20825;-66
2022/05/09 04:06:51;;;;;;;16.63;9.52;;;7.90;99.90;;;;;;5068664;28;20388;-66
2022/05/09 04:09:17;;;;;;;16.30;8.93;;;7.90;99.90;;;;;;5062699;28;20040;-67
2022/05/09 04:11:45;;;;;;;15.65;8.98;;;7.80;99.90;;;;;;5069611;28;20036;-66
2022/05/09 04:14:11;;;;;;;16.65;8.00;;;7.80;99.90;;;;;;5060197;28;20033;-66
2022/05/09 04:16:52;;;;;;;15.02;9.27;;;7.90;99.90;;;;;;5054389;28;20046;-65
2022/05/09 04:19:18;;;;;;;13.98;8.63;;;7.80;99.90;;;;;;5065724;28;20047;-67
2022/05/09 04:21:44;;;;;;;15.30;8.35;;;7.80;99.90;;;;;;5043962;28;20354;-66
2022/05/09 04:24:10;;;;;;;14.30;8.75;;;7.80;99.90;;;;;;5069557;28;20039;-66
2022/05/09 04:26:36;;;;;;;24.17;8.70;;;7.90;99.90;;;;;;5068625;28;20711;-65
2022/05/09 04:29:03;;;;;;;18.00;8.73;;;7.80;99.90;;;;;;5064083;28;20047;-65
2022/05/09 04:31:29;;;;;;;13.50;8.60;;;7.80;99.90;;;;;;5041718;28;20029;-67
2022/05/09 04:33:55;;;;;;;14.38;8.80;;;7.80;99.90;;;;;;5063063;28;20083;-67
2022/05/09 04:36:22;;;;;;;13.20;8.40;;;7.90;99.90;;;;;;5061081;28;20033;-66
2022/05/09 04:38:50;;;;;;;13.30;8.60;;;7.90;99.90;;;;;;5069021;28;20097;-66
2022/05/09 04:41:19;;;;;;;13.73;8.57;;;8.10;99.90;;;;;;5062576;28;20037;-67
2022/05/09 04:43:45;;;;;;;14.35;9.02;;;8.10;99.90;;;;;;5067232;28;20040;-67
2022/05/09 04:46:12;;;;;;;17.25;9.80;;;8.20;99.90;;;;;;5068969;28;20442;-66
2022/05/09 04:48:40;;;;;;;17.10;10.00;;;8.30;99.90;;;;;;5068140;28;20036;-66
2022/05/09 04:51:06;;;;;;;15.88;9.95;;;8.20;99.90;;;;;;5055386;28;20040;-65
2022/05/09 04:53:32;;;;;;;16.27;9.27;;;8.30;99.90;;;;;;5066814;28;20052;-67
2022/05/09 04:55:58;;;;;;;14.32;8.95;;;8.50;99.90;;;;;;5068891;28;20024;-65
2022/05/09 04:58:24;;;;;;;16.35;9.60;;;8.60;99.90;;;;;;5065953;28;20028;-66
2022/05/09 05:00:50;;;;;;;14.15;8.77;;;8.90;99.90;;;;;;5066961;28;20732;-67
2022/05/09 05:03:16;;;;;;;14.68;8.68;;;9.20;99.90;;;;;;5060914;28;20040;-67
2022/05/09 05:05:42;;;;;;;16.85;9.30;;;9.40;99.90;;;;;;5065833;28;20060;-66
2022/05/09 05:08:11;;;;;;;17.98;9.45;;;9.50;99.90;;;;;;5048625;28;20025;-65
2022/05/09 05:10:37;;;;;;;16.33;9.63;;;9.60;99.90;;;;;;5067302;28;20052;-65
2022/05/09 05:13:03;;;;;;;16.38;9.15;;;9.50;99.90;;;;;;5067807;28;20427;-66
2022/05/09 05:15:30;;;;;;;21.75;9.85;;;9.60;99.90;;;;;;5064463;28;20028;-66
2022/05/09 05:17:56;;;;;;;16.35;9.85;;;9.80;99.90;;;;;;5068395;28;20449;-67
2022/05/09 05:20:23;;;;;;;17.02;9.55;;;9.90;99.90;;;;;;5064789;28;20028;-66
2022/05/09 05:22:49;;;;;;;19.33;10.82;;;10.10;99.90;;;;;;5067732;28;20032;-67
2022/05/09 05:25:21;;;;;;;33.78;15.80;;;10.30;99.90;;;;;;5068156;28;20050;-67
2022/05/09 05:27:47;;;;;;;29.95;15.18;;;10.40;99.90;;;;;;5067819;28;20028;-67
2022/05/09 05:30:14;;;;;;;28.77;14.50;;;10.50;99.90;;;;;;5067940;28;20487;-67
2022/05/09 05:32:42;;;;;;;20.92;12.23;;;10.50;99.90;;;;;;5060934;28;20028;-67
2022/05/09 05:35:14;;;;;;;21.70;11.80;;;10.60;99.90;;;;;;5059938;28;20029;-66
2022/05/09 05:37:40;;;;;;;22.42;12.50;;;10.80;99.90;;;;;;5063344;28;20041;-67
2022/05/09 05:40:07;;;;;;;20.70;12.27;;;11.00;99.90;;;;;;5061129;28;20041;-66
2022/05/09 05:42:33;;;;;;;20.25;12.60;;;11.20;99.90;;;;;;5056533;28;20048;-66
2022/05/09 05:44:59;;;;;;;22.13;12.85;;;11.40;99.90;;;;;;5060890;28;20028;-67
2022/05/09 05:47:25;;;;;;;22.92;13.38;;;11.70;99.90;;;;;;5060285;28;20025;-67
2022/05/09 05:49:51;;;;;;;31.98;15.35;;;12.00;99.90;;;;;;5063618;28;20044;-67
2022/05/09 05:52:17;;;;;;;25.08;14.98;;;12.20;99.90;;;;;;5063487;28;20374;-67
2022/05/09 05:54:45;;;;;;;23.88;14.82;;;12.40;99.90;;;;;;5067627;28;20028;-68
2022/05/09 05:57:26;;;;;;;32.30;15.88;;;12.50;99.90;;;;;;5066113;28;20482;-66
2022/05/09 06:00:01;;;;;;;24.10;15.32;;;12.60;99.90;;;;;;5062940;28;20033;-68
2022/05/09 06:02:28;;;;;;;25.60;14.23;;;12.70;99.90;;;;;;5060967;28;20038;-67
2022/05/09 06:04:54;;;;;;;23.10;14.07;;;12.80;99.90;;;;;;5071278;28;20078;-68
2022/05/09 06:07:22;;;;;;;24.65;14.52;;;12.90;99.90;;;;;;5070324;28;20039;-67
2022/05/09 06:09:49;;;;;;;25.17;13.77;;;13.00;99.90;;;;;;5069501;28;20135;-67
2022/05/09 06:12:17;;;;;;;24.05;13.15;;;13.10;99.90;;;;;;5072129;28;20040;-67
2022/05/09 06:14:43;;;;;;;26.15;13.85;;;13.30;99.90;;;;;;5069539;28;20729;-67
2022/05/09 06:17:10;;;;;;;23.45;13.60;;;13.50;99.90;;;;;;5061139;28;20092;-66
2022/05/09 06:19:37;;;;;;;22.95;13.30;;;13.60;99.90;;;;;;5062323;28;20036;-69
2022/05/09 06:22:04;;;;;;;20.13;12.68;;;13.60;99.90;;;;;;5064119;28;20082;-68
2022/05/09 06:24:30;;;;;;;21.48;13.48;;;13.80;99.90;;;;;;5070211;28;20059;-68
2022/05/09 06:26:56;;;;;;;21.90;12.23;;;14.00;99.90;;;;;;5059475;28;20087;-70
2022/05/09 06:29:23;;;;;;;22.83;12.52;;;14.20;99.90;;;;;;5066032;28;20544;-68
2022/05/09 06:31:49;;;;;;;20.05;11.85;;;14.30;99.90;;;;;;5067371;28;20112;-69
2022/05/09 06:34:15;;;;;;;20.10;12.55;;;14.40;99.90;;;;;;5067063;28;20090;-68
2022/05/09 06:36:44;;;;;;;19.17;12.35;;;14.60;99.90;;;;;;5069715;28;20036;-69
2022/05/09 06:39:11;;;;;;;21.63;12.60;;;14.70;99.90;;;;;;5061278;28;20053;-68
2022/05/09 06:41:38;;;;;;;20.95;12.07;;;14.70;99.90;;;;;;5064660;28;20048;-68
2022/05/09 06:44:04;;;;;;;20.83;12.05;;;14.80;99.90;;;;;;5065953;28;20387;-67
2022/05/09 06:46:29;;;;;;;20.10;12.30;;;14.90;99.90;;;;;;5067105;28;20028;-67
2022/05/09 06:48:55;;;;;;;20.83;12.55;;;14.90;99.90;;;;;;5067218;28;20105;-66
2022/05/09 06:51:22;;;;;;;17.98;12.32;;;15.00;99.90;;;;;;5059516;28;20579;-68
2022/05/09 06:53:50;;;;;;;19.45;12.10;;;15.20;99.90;;;;;;5062824;28;20089;-68
2022/05/09 06:56:15;;;;;;;19.25;13.05;;;15.30;99.90;;;;;;5065129;28;20089;-66
2022/05/09 06:58:41;;;;;;;21.67;12.07;;;15.40;99.90;;;;;;5072375;28;20697;-67
2022/05/09 07:01:15;;;;;;;17.85;11.05;;;15.60;99.90;;;;;;5071771;28;20444;-68
2022/05/09 07:03:42;;;;;;;17.70;11.45;;;15.70;99.90;;;;;;5071117;28;20040;-67
2022/05/09 07:06:07;;;;;;;17.85;11.23;;;15.90;99.90;;;;;;5063161;28;20027;-67
2022/05/09 07:08:34;;;;;;;17.38;11.32;;;16.10;99.90;;;;;;5070573;28;20037;-67
2022/05/09 07:11:00;;;;;;;19.33;11.82;;;16.10;99.90;;;;;;5069328;28;20056;-67
2022/05/09 07:13:26;;;;;;;19.27;11.80;;;16.20;99.90;;;;;;5062622;28;20111;-68
2022/05/09 07:15:57;;;;;;;18.70;12.07;;;16.30;99.90;;;;;;5071118;28;20124;-68
2022/05/09 07:18:25;;;;;;;;;;;16.40;99.90;;;;;;5070181;28;20035;-67
2022/05/09 07:20:51;;;;;;;18.17;10.68;;;16.50;99.90;;;;;;5070851;28;19916;-67
2022/05/09 07:23:17;;;;;;;15.65;10.77;;;16.80;99.90;;;;;;5066453;28;20032;-67
2022/05/09 07:25:43;;;;;;;20.08;11.48;;;16.90;99.90;;;;;;5057580;28;20040;-67
2022/05/09 07:28:11;;;;;;;19.83;11.25;;;17.00;99.90;;;;;;5061015;28;20025;-67
2022/05/09 07:30:38;;;;;;;65.15;16.15;;;17.00;99.90;;;;;;5070769;28;20036;-67
2022/05/09 07:33:04;;;;;;;26.33;12.20;;;17.20;99.90;;;;;;5070939;28;20032;-69
2022/05/09 07:35:32;;;;;;;21.70;11.48;;;17.40;99.90;;;;;;5065538;28;20089;-67
2022/05/09 07:37:57;;;;;;;18.58;10.48;;;17.50;99.90;;;;;;5066801;28;20048;-68
2022/05/09 07:40:23;;;;;;;15.77;10.85;;;17.60;99.90;;;;;;5068248;28;20492;-67
2022/05/09 07:42:49;;;;;;;15.13;10.38;;;17.90;99.90;;;;;;5063718;28;20059;-68
2022/05/09 07:45:18;;;;;;;14.73;10.52;;;18.00;99.90;;;;;;5060973;28;20025;-67
2022/05/09 07:47:43;;;;;;;14.20;9.57;;;18.10;99.90;;;;;;5070956;28;20020;-66
2022/05/09 07:50:11;;;;;;;16.02;10.48;;;18.10;99.90;;;;;;5070720;28;20040;-67
2022/05/09 07:52:37;;;;;;;18.98;10.27;;;18.30;99.90;;;;;;5070269;28;20021;-67
2022/05/09 07:55:04;;;;;;;17.67;10.43;;;18.40;99.90;;;;;;5062153;28;20514;-66
2022/05/09 07:57:30;;;;;;;15.60;9.95;;;18.60;99.90;;;;;;5061468;28;20036;-67
2022/05/09 07:59:58;;;;;;;18.90;10.63;;;18.70;99.90;;;;;;5063604;28;20036;-68
2022/05/09 08:02:24;;;;;;;14.90;9.75;;;18.80;99.90;;;;;;5066735;28;20039;-67
2022/05/09 08:04:49;;;;;;;13.80;9.63;;;18.60;99.90;;;;;;5064000;28;20024;-68
2022/05/09 08:07:16;;;;;;;17.30;10.05;;;18.70;99.90;;;;;;5060922;28;20048;-66
2022/05/09 08:09:42;;;;;;;15.25;10.23;;;18.60;99.90;;;;;;5062355;28;20028;-67
2022/05/09 08:12:08;;;;;;;15.95;10.13;;;18.70;99.90;;;;;;5063909;28;20033;-67
2022/05/09 08:14:34;;;;;;;15.02;9.93;;;18.80;99.90;;;;;;5059912;28;20842;-67
2022/05/09 08:17:02;;;;;;;14.48;9.80;;;18.90;99.90;;;;;;5062132;28;20037;-66
2022/05/09 08:19:29;;;;;;;17.40;9.95;;;18.90;99.90;;;;;;5069345;28;20105;-67
2022/05/09 08:21:55;;;;;;;17.15;10.30;;;19.00;99.90;;;;;;5070486;28;20119;-68
2022/05/09 08:24:22;;;;;;;16.73;9.52;;;19.20;99.90;;;;;;5056706;28;20103;-67
2022/05/09 08:26:48;;;;;;;13.57;9.38;;;19.20;99.90;;;;;;5061795;28;20660;-65
2022/05/09 08:29:14;;;;;;;16.35;9.88;;;19.30;99.90;;;;;;5062880;28;20513;-67
2022/05/09 08:31:39;;;;;;;16.75;9.68;;;19.20;99.90;;;;;;5067697;28;20435;-67
2022/05/09 08:34:05;;;;;;;15.48;9.68;;;19.20;99.90;;;;;;5070049;28;20028;-66
2022/05/09 08:36:46;;;;;;;15.98;10.15;;;19.40;99.90;;;;;;5064288;28;20464;-66
2022/05/09 08:39:13;;;;;;;14.40;9.55;;;19.60;99.90;;;;;;5068236;28;20122;-66
2022/05/09 08:41:59;;;;;;;15.93;9.63;;;19.80;99.90;;;;;;5060941;28;20597;-66
2022/05/09 08:45:13;;;;;;;16.73;9.65;;;19.90;99.90;;;;;;5067464;28;20163;-66
2022/05/09 08:47:59;;;;;;;16.23;8.85;;;20.00;99.90;;;;;;5065699;28;20028;-67
2022/05/09 08:50:51;;;;;;;18.60;8.93;;;20.20;99.90;;;;;;5064498;28;20036;-68
2022/05/09 08:53:23;;;;;;;16.00;9.63;;;20.30;99.90;;;;;;5064325;28;20032;-68
2022/05/09 08:55:51;;;;;;;14.52;9.02;;;20.30;99.90;;;;;;5069628;28;20074;-67
2022/05/09 08:58:37;;;;;;;12.93;8.63;;;20.50;99.90;;;;;;5060808;28;20040;-67
2022/05/09 09:01:30;;;;;;;16.35;9.50;;;20.80;99.90;;;;;;5060885;28;20040;-66
2022/05/09 09:04:03;;;;;;;13.82;8.77;;;21.00;99.90;;;;;;5064566;28;20060;-67
2022/05/09 09:06:57;;;;;;;15.30;9.85;;;21.40;99.90;;;;;;5060365;28;20047;-67
2022/05/09 09:09:25;;;;;;;14.85;8.90;;;21.00;99.90;;;;;;5062301;28;20074;-68
2022/05/09 09:12:00;;;;;;;13.93;9.75;;;20.40;99.90;;;;;;5069049;28;20117;-66
2022/05/09 09:14:41;;;;;;;18.38;9.52;;;20.50;99.90;;;;;;5068443;28;20036;-66
2022/05/09 09:17:25;;;;;;;;;;;20.40;99.90;;;;;;5068870;28;20111;-66
2022/05/09 09:20:12;;;;;;;14.27;9.52;;;20.40;99.90;;;;;;5068113;28;20372;-67
2022/05/09 09:22:50;;;;;;;13.10;9.38;;;20.30;99.90;;;;;;5067284;28;20036;-67
2022/05/09 09:25:38;;;;;;;14.23;9.50;;;20.10;99.90;;;;;;5060902;28;20481;-66
2022/05/09 09:28:07;;;;;;;13.95;8.80;;;20.30;99.90;;;;;;5068798;28;20037;-67
2022/05/09 09:30:34;;;;;;;13.00;9.07;;;20.80;99.90;;;;;;5067442;28;20039;-67
2022/05/09 09:33:05;;;;;;;14.18;9.15;;;21.00;99.90;;;;;;5060096;28;20043;-66
2022/05/09 09:35:37;;;;;;;17.83;8.98;;;20.80;99.90;;;;;;5058042;28;20029;-66
2022/05/09 09:38:34;;;;;;;13.90;9.15;;;20.40;99.90;;;;;;5057707;28;20045;-66
2022/05/09 09:41:16;;;;;;;12.68;9.30;;;20.00;99.90;;;;;;5060350;28;20123;-66
2022/05/09 09:43:42;;;;;;;13.23;8.90;;;19.90;99.90;;;;;;5062045;28;20031;-66
2022/05/09 09:46:09;;;;;;;14.80;9.55;;;19.90;99.90;;;;;;5060275;28;20020;-66
2022/05/09 09:48:35;;;;;;;15.07;8.55;;;19.90;99.90;;;;;;5067882;28;20059;-67
2022/05/09 09:51:10;;;;;;;15.10;8.48;;;20.30;99.90;;;;;;5061225;28;20466;-66
2022/05/09 09:53:41;;;;;;;16.38;8.32;;;20.90;99.90;;;;;;5052170;28;20067;-66
2022/05/09 09:56:25;;;;;;;16.63;8.45;;;21.30;99.90;;;;;;5063537;28;20150;-67
2022/05/09 09:58:58;;;;;;;12.20;8.35;;;21.60;99.90;;;;;;5060010;28;20056;-66
2022/05/09 10:01:30;;;;;;;12.23;7.95;;;21.70;99.90;;;;;;5066313;28;20081;-66
2022/05/09 10:04:14;;;;;;;14.77;8.68;;;21.50;99.90;;;;;;5068584;28;20030;-68
2022/05/09 10:07:12;;;;;;;12.75;8.52;;;21.80;99.90;;;;;;5059084;28;20040;-66
2022/05/09 10:10:00;;;;;;;13.50;8.32;;;21.50;99.90;;;;;;5067749;28;20044;-68
2022/05/09 10:12:30;;;;;;;12.40;8.40;;;21.40;99.90;;;;;;5065358;28;20481;-66
2022/05/09 10:15:00;;;;;;;12.15;8.05;;;21.10;99.90;;;;;;5066806;28;20111;-67
2022/05/09 10:17:25;;;;;;;16.03;8.67;;;21.20;99.90;;;;;;5067659;28;20051;-67
2022/05/09 10:19:53;;;;;;;10.50;7.80;;;20.80;99.90;;;;;;5068610;28;20029;-67
2022/05/09 10:25:24;;;;;;;12.40;7.78;;;20.50;99.90;;;;;;5060221;28;20082;-67
2022/05/09 10:28:05;;;;;;;13.02;7.78;;;20.70;99.90;;;;;;5067454;28;20115;-67
2022/05/09 10:30:37;;;;;;;14.82;7.97;;;20.60;99.90;;;;;;5067624;28;20072;-68
2022/05/09 10:33:23;;;;;;;13.57;8.32;;;20.50;99.90;;;;;;5063412;28;20043;-67
2022/05/09 10:35:54;;;;;;;12.40;7.72;;;20.40;99.90;;;;;;5067092;28;20024;-66
2022/05/09 10:38:40;;;;;;;10.43;7.43;;;20.60;99.90;;;;;;5067848;28;20090;-67
2022/05/09 10:41:16;;;;;;;11.82;7.43;;;21.30;99.90;;;;;;5060991;28;20039;-67
2022/05/09 10:43:57;;;;;;;11.35;7.88;;;21.60;99.90;;;;;;5067153;28;20029;-67
2022/05/09 10:46:51;;;;;;;12.75;8.60;;;21.20;99.90;;;;;;5069122;28;20021;-67
2022/05/09 10:49:32;;;;;;;11.20;8.13;;;20.80;99.90;;;;;;5072046;28;20036;-68
2022/05/09 10:52:10;;;;;;;14.30;7.97;;;20.70;99.90;;;;;;5071688;28;20036;-67
2022/05/09 10:54:51;;;;;;;12.32;7.60;;;20.80;99.90;;;;;;5071418;28;20037;-67
2022/05/09 10:57:22;;;;;;;32.63;10.15;;;21.40;99.90;;;;;;5067949;28;20400;-68
2022/05/09 10:59:49;;;;;;;16.48;7.50;;;21.80;99.90;;;;;;5070703;28;20136;-67
2022/05/09 11:02:17;;;;;;;11.65;7.63;;;22.30;99.90;;;;;;5067008;28;20033;-67
2022/05/09 11:04:43;;;;;;;12.05;7.75;;;22.70;98.90;;;;;;5067160;28;20025;-68
2022/05/09 11:07:38;;;;;;;11.65;8.20;;;22.70;97.00;;;;;;5071147;28;20020;-69
2022/05/09 11:10:28;;;;;;;13.45;8.18;;;22.20;98.90;;;;;;5069529;28;20032;-68
2022/05/09 11:13:11;;;;;;;15.10;8.15;;;22.10;96.10;;;;;;5060631;28;20478;-69
2022/05/09 11:15:55;;;;;;;49.97;10.57;;;21.80;97.50;;;;;;5071021;28;20051;-67
2022/05/09 11:18:44;;;;;;;16.05;8.05;;;21.50;98.00;;;;;;5069740;28;20028;-68
2022/05/09 11:21:32;;;;;;;10.48;7.75;;;21.20;97.90;;;;;;5070629;28;20055;-67
2022/05/09 11:24:18;;;;;;;13.48;7.95;;;21.10;99.50;;;;;;5063217;28;20465;-67
2022/05/09 11:26:43;;;;;;;9.77;7.68;;;21.30;99.80;;;;;;5065591;28;20025;-68
2022/05/09 11:29:35;;;;;;;13.43;7.85;;;21.90;99.80;;;;;;5070429;28;20025;-68
2022/05/09 11:32:07;;;;;;;11.68;8.20;;;22.70;99.40;;;;;;5070762;28;20055;-69
2022/05/09 11:34:51;;;;;;;12.57;8.25;;;22.40;95.10;;;;;;5065600;28;20081;-67
2022/05/09 11:37:53;;;;;;;12.15;7.30;;;22.10;95.90;;;;;;5062244;28;20074;-68
2022/05/09 11:40:43;;;;;;;9.68;6.90;;;22.40;98.30;;;;;;5069539;28;20064;-68
2022/05/09 11:43:33;;;;;;;10.75;6.85;;;23.10;97.50;;;;;;5062489;28;20555;-68
2022/05/09 11:46:24;;;;;;;9.20;6.75;;;23.80;98.00;;;;;;5063091;28;20426;-69
2022/05/09 11:48:55;;;;;;;10.02;7.65;;;23.80;93.20;;;;;;5061655;28;20590;-68
2022/05/09 11:51:40;;;;;;;12.20;7.43;;;22.90;92.10;;;;;;5052439;28;20389;-68
2022/05/09 11:54:17;;;;;;;10.80;6.80;;;22.00;95.00;;;;;;5071085;28;20062;-68
2022/05/09 11:56:48;;;;;;;9.68;7.03;;;22.20;95.20;;;;;;5059233;28;20380;-68
2022/05/09 11:59:18;;;;;;;;;;;22.70;93.40;;;;;;5070277;28;20029;-68
2022/05/09 12:02:03;;;;;;;12.68;7.00;;;23.00;92.00;;;;;;5065810;28;19915;-68
2022/05/09 12:04:45;;;;;;;17.45;6.57;;;22.80;90.80;;;;;;5066705;28;20534;-68
2022/05/09 12:07:28;;;;;;;13.32;6.82;;;23.00;93.00;;;;;;5066247;28;20422;-68
2022/05/09 12:10:15;;;;;;;11.88;6.90;;;22.90;90.50;;;;;;5063471;28;20040;-69
2022/05/09 12:12:49;;;;;;;13.18;6.78;;;22.40;90.30;;;;;;5060662;28;20124;-67
2022/05/09 12:15:15;;;;;;;13.30;6.80;;;21.90;92.40;;;;;;5067428;28;20062;-68
2022/05/09 12:17:48;;;;;;;12.15;7.47;;;21.70;94.70;;;;;;5069317;28;20028;-69
2022/05/09 12:20:37;;;;;;;11.32;7.50;;;22.00;94.10;;;;;;5061829;28;20040;-69
2022/05/09 12:23:11;;;;;;;10.63;7.03;;;22.60;92.70;;;;;;5018603;28;20059;-69
2022/05/09 12:25:41;;;;;;;12.65;7.38;;;23.10;92.60;;;;;;5069364;28;20391;-68
2022/05/09 12:28:22;;;;;;;10.68;7.32;;;23.40;91.70;;;;;;5069474;28;20469;-68
2022/05/09 12:31:26;;;;;;;17.63;7.10;;;23.40;91.50;;;;;;5069260;28;20052;-67
2022/05/09 12:33:53;;;;;;;12.85;6.95;;;23.40;90.60;;;;;;5018194;28;20216;-68
2022/05/09 12:36:28;;;;;;;11.93;7.22;;;23.50;88.70;;;;;;5064077;28;20060;-69
2022/05/09 12:39:15;;;;;;;13.23;6.53;;;23.30;84.20;;;;;;5068125;28;20079;-69
2022/05/09 12:41:55;;;;;;;13.18;7.55;;;23.10;83.60;;;;;;5067091;28;20056;-68
2022/05/09 12:44:29;;;;;;;12.82;6.80;;;22.80;83.20;;;;;;5070190;28;20043;-67
2022/05/09 12:47:01;;;;;;;12.93;6.72;;;23.20;83.70;;;;;;5068694;28;20032;-69
2022/05/09 12:49:54;;;;;;;11.60;7.13;;;23.30;81.80;;;;;;5069597;28;20037;-68
2022/05/09 12:52:27;;;;;;;10.48;6.40;;;23.40;81.10;;;;;;5048475;28;20064;-68
2022/05/09 12:57:41;;;;;;;10.68;6.80;;;23.90;83.10;;;;;;5060513;28;20056;-69
2022/05/09 13:00:11;;;;;;;9.65;7.00;;;23.90;79.00;;;;;;5068858;28;20468;-68
2022/05/09 13:02:37;;;;;;;;;;;23.80;81.10;;;;;;5069027;28;20520;-67
2022/05/09 13:05:04;;;;;;;11.20;6.70;;;24.00;76.50;;;;;;5051378;28;19995;-69